Flight Track Log - Related Links

Times and Time Zones

All times are in EDT time to prevent confusion due to time zone crossing. See the CRQ101 flight status page for this flight to view local times or setup timezone preferences in your user account.

Time Position Orientation Groundspeed Altitude Reporting Facility
EDT Latitude Longitude Course Direction KTS MPH feet Rate Location/Type
Mon 09:46:00 AM 49.2030 -74.4163 173° South  Level Estimated
Mon 09:47:00 AM 49.1381 -74.4037 173° South  Level Estimated
Mon 09:48:00 AM 49.0732 -74.3911 173° South  Level Estimated
Mon 09:49:00 AM 49.0084 -74.3786 173° South  Level Estimated
Mon 09:50:00 AM 48.9435 -74.3661 173° South  Level Estimated
Mon 09:51:00 AM 48.8786 -74.3537 173° South  Level Estimated
Mon 09:52:00 AM 48.8136 -74.3412 173° South  Level Estimated
Mon 09:53:00 AM 48.7487 -74.3289 173° South  Level Estimated
Mon 09:54:00 AM 48.6838 -74.3165 173° South  Level Estimated
Mon 09:55:00 AM 48.6189 -74.3042 173° South  Level Estimated
Mon 09:56:00 AM 48.5540 -74.2919 173° South  Level Estimated
Mon 09:57:00 AM 48.4891 -74.2796 173° South  Level Estimated
Mon 09:58:00 AM 48.4242 -74.2674 173° South  Level Estimated
Mon 09:59:00 AM 48.3593 -74.2552 173° South  Level Estimated
Mon 10:00:00 AM 48.2943 -74.2430 173° South  Level Estimated
Mon 10:01:00 AM 48.2294 -74.2309 173° South  Level Estimated
Mon 10:02:00 AM 48.1645 -74.2188 173° South  Level Estimated
Mon 10:03:00 AM 48.0996 -74.2067 173° South  Level Estimated
Mon 10:04:00 AM 48.0347 -74.1946 173° South  Level Estimated
Mon 10:05:00 AM 47.9697 -74.1826 173° South  Level Estimated
Mon 10:06:00 AM 47.9048 -74.1706 173° South  Level Estimated
Mon 10:07:00 AM 47.8399 -74.1587 173° South  Level Estimated
Mon 10:08:00 AM 47.7750 -74.1467 173° South  Level Estimated
Mon 10:09:00 AM 47.7100 -74.1348 173° South  Level Estimated
Mon 10:10:00 AM 47.6451 -74.1230 173° South  Level Estimated
Mon 10:11:00 AM 47.5802 -74.1111 173° South  Level Estimated
Mon 10:11:41 AM 47.4667 -74.4333 173° South 220 253 20,100  Level Montreal Center
Mon 10:12:00 AM 47.5152 -74.0993 173° South  Level Estimated
Mon 10:12:41 AM 47.4000 -74.4333 180° South 220 253 20,000  Level Montreal Center
Mon 10:13:00 AM 47.4503 -74.0875 173° South  Level Estimated
Mon 10:14:00 AM 47.3854 -74.0758 173° South  Level Estimated
Mon 10:15:00 AM 47.3204 -74.0641 173° South  Level Estimated
Mon 10:15:00 AM 47.2530 -74.3789 166° South  Level Estimated
Mon 10:15:41 AM 47.2000 -74.4167 166° South 220 253 20,000  Level Montreal Center
Mon 10:16:00 AM 47.2555 -74.0524 173° South  Level Estimated
Mon 10:16:41 AM 47.1333 -74.4167 180° South 220 253 20,000  Level Montreal Center
Mon 10:17:00 AM 47.1906 -74.0407 173° South  Level Estimated
Mon 10:17:41 AM 47.0833 -74.4167 180° South 220 253 20,000  Level Montreal Center
Mon 10:18:41 AM 47.0167 -74.3833 161° South 220 253 20,000 50 Level Montreal Center
Mon 10:19:41 AM 46.9500 -74.4000 190° South 220 253 20,100  Climbing Montreal Center
Mon 10:20:41 AM 46.9000 -74.4000 180° South 220 253 20,000  Descending Montreal Center
Mon 10:21:41 AM 46.8333 -74.4000 180° South 220 253 20,100 50 Climbing Montreal Center
Mon 10:22:41 AM 46.7667 -74.4167 190° South 220 253 20,100  Level Montreal Center
Mon 10:24:00 AM 46.6812 -74.4009 173° South  Level FlightAware Approximate
Mon 10:25:41 AM 46.5833 -74.4333 173° South 220 253 20,100  Level Montreal Center
Mon 10:27:00 AM 46.4995 -74.4121 170° South  Level FlightAware Approximate
Mon 10:27:41 AM 46.4667 -74.4333 170° South 220 253 20,100  Level Montreal Center
Mon 10:29:00 AM 46.3833 -74.4083 168° South  Level FlightAware Approximate
Mon 10:30:41 AM 46.2667 -74.4333 168° South 240 276 18,900  Level Montreal Center
Mon 10:31:00 AM 46.2269 -74.3178 173° South  Level FlightAware Approximate
Mon 10:31:41 AM 46.2000 -74.4167 170° South 270 311 17,500  Level Montreal Center
Mon 10:32:41 AM 46.1333 -74.4000 170° South 270 311 16,000 -1,600 Descending Montreal Center
Mon 10:33:41 AM 46.0500 -74.3667 164° South 260 299 14,300 -1,533 Descending Montreal Center
Mon 10:35:00 AM 45.9711 -74.3205 158° South  Level FlightAware Approximate
Mon 10:35:41 AM 45.9167 -74.3333 158° South 250 288 11,400  Level Montreal Center
Mon 10:36:00 AM 45.9400 -74.2765 168° South  Level FlightAware Approximate
Mon 10:36:41 AM 45.8667 -74.3000 155° Southeast 240 276 10,100  Level Montreal Center
Mon 10:37:41 AM 45.8167 -74.2333 137° Southeast 220 253 9,000 -1,000 Descending Montreal Center
Mon 10:38:41 AM 45.7667 -74.1833 145° Southeast 210 242 8,100 -900 Descending Montreal Center
Mon 10:40:00 AM 45.7230 -74.1140 137° Southeast  Level FlightAware Approximate
Mon 10:40:41 AM 45.7000 -74.0500 137° Southeast 230 265 6,300  Level Montreal Center
Mon 10:42:00 AM 45.6210 -73.9949 152° Southeast  Level FlightAware Approximate
Mon 10:42:42 AM 45.6500 -73.8833 152° Southeast 230 265 6,000  Level Montreal Center
Mon 10:43:42 AM 45.6333 -73.7833 103° East 230 265 6,000 -725 Level Montreal Center
Mon 10:46:00 AM 45.4869 -73.7462 199° South  Level Estimated
Mon 10:46:42 AM 45.5833 -73.5667 199° South 210 242 3,100  Level Montreal Center
Mon 10:47:42 AM 45.5333 -73.6000 205° Southwest 180 207 1,900 -833 Descending Montreal Center
Mon 10:49:00 AM 45.4871 -73.7002 237° Southwest  Level Estimated
Mon 10:49:42 AM 45.4833 -73.6667 237° Southwest 120 138 600  Level Montreal Center
Mon 10:52:00 AM 45.4667 -73.7333 65° Northeast  Level FlightAware Approximate
Mon 10:59:00 AM 45.4681 -73.7414 65° Northeast  Level Estimated
Mon 11:00:00 AM 45.4667 -73.7333 65° Northeast  Level FlightAware Approximate
Mon 11:01:00 AM 45.4681 -73.7414 65° Northeast  Level Estimated
Mon 11:02:00 AM 45.4667 -73.7333 65° Northeast  Level FlightAware Approximate
Mon 11:03:00 AM 45.4681 -73.7414 65° Northeast  Level Estimated
Mon 11:04:00 AM 45.4667 -73.7333 65° Northeast  Level FlightAware Approximate
Mon 11:05:00 AM 45.4681 -73.7414 65° Northeast  Level Estimated

Login

Don't have an account? Register now (free) for customized features, flight alerts, and more!